createdAt,value
2017-05-08T00:00:41.737Z,0
2017-05-08T00:01:52.017Z,0
2017-05-08T00:03:01.986Z,0
2017-05-08T00:04:12.266Z,0
2017-05-08T00:05:22.796Z,0
2017-05-08T00:06:33.081Z,0
2017-05-08T00:07:43.051Z,0
2017-05-08T00:08:53.353Z,0
2017-05-08T00:10:03.046Z,0
2017-05-08T00:11:13.581Z,0
2017-05-08T00:12:23.236Z,0
2017-05-08T00:13:33.529Z,0
2017-05-08T00:14:43.496Z,0
2017-05-08T00:15:53.776Z,0
2017-05-08T00:17:03.995Z,0
2017-05-08T00:18:14.277Z,0
2017-05-08T00:19:24.561Z,0
2017-05-08T00:20:34.540Z,0
2017-05-08T00:21:44.857Z,0
2017-05-08T00:22:55.471Z,0
2017-05-08T00:24:05.788Z,0
2017-05-08T00:25:16.099Z,0
2017-05-08T00:26:26.061Z,0
2017-05-08T00:27:36.354Z,0
2017-05-08T00:28:46.899Z,0
2017-05-08T00:29:57.180Z,0
2017-05-08T00:31:07.460Z,0
2017-05-08T00:32:17.742Z,0
2017-05-08T00:33:28.059Z,0
2017-05-08T00:34:38.591Z,0
2017-05-08T00:35:48.873Z,0
2017-05-08T00:36:58.534Z,0
2017-05-08T00:38:08.813Z,0
2017-05-08T00:39:19.111Z,0
2017-05-08T00:40:29.638Z,0
2017-05-08T00:41:39.918Z,0
2017-05-08T00:42:50.194Z,0
2017-05-08T00:44:00.481Z,0
2017-05-08T00:45:10.755Z,0
2017-05-08T00:46:21.288Z,0
2017-05-08T00:47:31.567Z,0
2017-05-08T00:48:41.862Z,0
2017-05-08T00:49:52.146Z,0
2017-05-08T00:51:02.134Z,0
2017-05-08T00:52:12.674Z,0
2017-05-08T00:53:22.682Z,0
2017-05-08T00:54:32.662Z,0
2017-05-08T00:55:42.944Z,0
2017-05-08T00:56:53.224Z,0
2017-05-08T00:58:03.810Z,0
2017-05-08T00:59:14.097Z,0
2017-05-08T01:00:24.381Z,0
2017-05-08T01:01:34.666Z,0
2017-05-08T01:02:44.949Z,0
2017-05-08T01:03:55.469Z,0
2017-05-08T01:05:05.439Z,0
2017-05-08T01:06:15.729Z,0
2017-05-08T01:07:26.011Z,0
2017-05-08T01:08:36.288Z,0
2017-05-08T01:09:46.826Z,0
2017-05-08T01:10:57.114Z,0
2017-05-08T01:12:07.082Z,0
2017-05-08T01:13:17.361Z,0
2017-05-08T01:14:27.676Z,0
2017-05-08T01:15:37.894Z,0
2017-05-08T01:16:48.174Z,0
2017-05-08T01:17:58.155Z,0
2017-05-08T01:19:08.436Z,0
2017-05-08T01:20:18.446Z,0
2017-05-08T01:21:28.976Z,0
2017-05-08T01:22:39.269Z,0
2017-05-08T01:23:49.558Z,0
2017-05-08T01:24:59.850Z,0
2017-05-08T01:26:09.813Z,0
2017-05-08T01:27:20.343Z,0
2017-05-08T01:28:30.316Z,0
2017-05-08T01:29:40.590Z,0
2017-05-08T01:30:50.871Z,0
2017-05-08T01:32:01.146Z,0
2017-05-08T01:33:11.381Z,0
2017-05-08T01:34:21.653Z,0
2017-05-08T01:35:31.621Z,0
2017-05-08T01:36:41.940Z,0
2017-05-08T01:37:51.910Z,0
2017-05-08T01:39:02.440Z,0
2017-05-08T01:40:12.411Z,0
2017-05-08T01:41:22.703Z,0
2017-05-08T01:42:32.675Z,0
2017-05-08T01:43:42.944Z,0
2017-05-08T01:44:53.508Z,0
2017-05-08T01:46:03.794Z,0
2017-05-08T01:47:14.069Z,0
2017-05-08T01:48:24.353Z,0
2017-05-08T01:49:34.636Z,0
2017-05-08T01:50:45.165Z,0
2017-05-08T01:51:55.129Z,0
2017-05-08T01:53:05.408Z,0
2017-05-08T01:54:15.697Z,0
2017-05-08T01:55:25.665Z,0
2017-05-08T01:56:36.214Z,0
2017-05-08T01:57:46.513Z,0
2017-05-08T01:58:56.800Z,0
2017-05-08T02:00:07.075Z,0
2017-05-08T02:01:17.347Z,0
2017-05-08T02:02:27.927Z,0
2017-05-08T02:03:38.206Z,0
2017-05-08T02:04:48.488Z,0
2017-05-08T02:05:58.460Z,0
2017-05-08T02:07:08.439Z,0
2017-05-08T02:08:18.976Z,0
2017-05-08T02:09:28.943Z,0
2017-05-08T02:10:39.225Z,0
2017-05-08T02:11:49.504Z,0
2017-05-08T02:12:59.822Z,0
2017-05-08T02:14:10.053Z,0
2017-05-08T02:15:20.030Z,0
2017-05-08T02:16:30.307Z,0
2017-05-08T02:17:40.589Z,0
2017-05-08T02:18:50.547Z,0
2017-05-08T02:20:00.809Z,0
2017-05-08T02:21:11.088Z,0
2017-05-08T02:22:21.362Z,0
2017-05-08T02:23:31.637Z,0
2017-05-08T02:24:41.618Z,0
2017-05-08T02:25:51.532Z,0
2017-05-08T02:27:01.817Z,0
2017-05-08T02:28:12.095Z,0
2017-05-08T02:29:22.381Z,0
2017-05-08T02:30:32.663Z,0
2017-05-08T02:31:43.196Z,0
2017-05-08T02:32:53.478Z,0
2017-05-08T02:34:03.456Z,0
2017-05-08T02:35:13.438Z,0
2017-05-08T02:36:23.712Z,0
2017-05-08T02:37:33.945Z,0
2017-05-08T02:38:43.914Z,0
2017-05-08T02:39:54.202Z,0
2017-05-08T02:41:04.491Z,0
2017-05-08T02:42:14.776Z,0
2017-05-08T02:43:25.316Z,0
2017-05-08T02:44:35.602Z,0
2017-05-08T02:45:45.884Z,0
2017-05-08T02:46:56.162Z,0
2017-05-08T02:48:06.444Z,0
2017-05-08T02:49:16.673Z,0
2017-05-08T02:50:26.948Z,0
2017-05-08T02:51:37.233Z,0
2017-05-08T02:52:47.524Z,0
2017-05-08T02:53:57.810Z,0
2017-05-08T02:55:08.363Z,0
2017-05-08T02:56:18.649Z,0
2017-05-08T02:57:28.612Z,0
2017-05-08T02:58:38.626Z,0
2017-05-08T02:59:48.911Z,0
2017-05-08T03:00:59.449Z,0
2017-05-08T03:02:09.725Z,0
2017-05-08T03:03:20.001Z,0
2017-05-08T03:04:30.293Z,0
2017-05-08T03:05:40.587Z,0
2017-05-08T03:06:50.847Z,0
2017-05-08T03:08:00.829Z,0
2017-05-08T03:09:10.182Z,0
2017-05-08T03:10:20.474Z,0
2017-05-08T03:11:30.755Z,0
2017-05-08T03:12:40.978Z,0
2017-05-08T03:13:51.272Z,0
2017-05-08T03:15:01.567Z,0
2017-05-08T03:16:11.842Z,0
2017-05-08T03:17:21.812Z,0
2017-05-08T03:18:32.354Z,0
2017-05-08T03:19:42.637Z,0
2017-05-08T03:20:52.918Z,0
2017-05-08T03:22:03.196Z,0
2017-05-08T03:23:13.494Z,0
2017-05-08T03:24:23.718Z,0
2017-05-08T03:25:33.995Z,0
2017-05-08T03:26:44.275Z,0
2017-05-08T03:27:54.494Z,0
2017-05-08T03:29:04.772Z,0
2017-05-08T03:30:15.298Z,0
2017-05-08T03:31:25.583Z,0
2017-05-08T03:32:35.550Z,0
2017-05-08T03:33:45.827Z,0
2017-05-08T03:34:56.106Z,0
2017-05-08T03:36:06.632Z,0
2017-05-08T03:37:16.598Z,0
2017-05-08T03:38:26.879Z,0
2017-05-08T03:39:36.865Z,0
2017-05-08T03:40:47.143Z,0
2017-05-08T03:41:57.674Z,0
2017-05-08T03:43:07.961Z,0
2017-05-08T03:44:18.276Z,5
2017-05-08T03:45:28.556Z,5
2017-05-08T03:46:38.830Z,0
2017-05-08T03:47:49.076Z,0
2017-05-08T03:48:59.356Z,5
2017-05-08T03:50:09.636Z,5
2017-05-08T03:51:19.599Z,0
2017-05-08T03:52:29.876Z,0
2017-05-08T03:53:40.086Z,0
2017-05-08T03:54:50.364Z,0
2017-05-08T03:56:00.331Z,0
2017-05-08T03:57:10.721Z,0
2017-05-08T03:58:20.999Z,0
2017-05-08T03:59:31.562Z,0
2017-05-08T04:00:41.851Z,0
2017-05-08T04:01:52.136Z,0
2017-05-08T04:03:02.418Z,5
2017-05-08T04:04:12.701Z,5
2017-05-08T04:05:23.250Z,5
2017-05-08T04:06:33.228Z,5
2017-05-08T04:07:43.512Z,5
2017-05-08T04:08:53.483Z,5
2017-05-08T04:10:03.772Z,5
2017-05-08T04:11:14.306Z,5
2017-05-08T04:12:23.965Z,5
2017-05-08T04:13:34.261Z,5
2017-05-08T04:14:44.535Z,5
2017-05-08T04:15:54.193Z,5
2017-05-08T04:17:04.411Z,5
2017-05-08T04:18:14.693Z,5
2017-05-08T04:19:24.997Z,5
2017-05-08T04:20:35.270Z,10
2017-05-08T04:21:45.551Z,10
2017-05-08T04:22:56.087Z,10
2017-05-08T04:24:06.363Z,10
2017-05-08T04:25:16.643Z,5
2017-05-08T04:26:26.612Z,5
2017-05-08T04:27:36.895Z,5
2017-05-08T04:28:47.427Z,5
2017-05-08T04:29:57.725Z,5
2017-05-08T04:31:08.003Z,5
2017-05-08T04:32:18.287Z,5
2017-05-08T04:33:28.569Z,5
2017-05-08T04:34:39.125Z,5
2017-05-08T04:35:49.137Z,5
2017-05-08T04:36:59.102Z,5
2017-05-08T04:38:09.382Z,5
2017-05-08T04:39:19.037Z,5
2017-05-08T04:40:29.591Z,5
2017-05-08T04:41:39.286Z,5
2017-05-08T04:42:49.572Z,5
2017-05-08T04:43:59.856Z,5
2017-05-08T04:45:10.137Z,5
2017-05-08T04:46:20.046Z,5
2017-05-08T04:47:30.024Z,5
2017-05-08T04:48:40.005Z,5
2017-05-08T04:49:49.965Z,5
2017-05-08T04:50:59.930Z,10
2017-05-08T04:52:10.459Z,10
2017-05-08T04:53:20.745Z,10
2017-05-08T04:54:30.724Z,10
2017-05-08T04:55:41.003Z,10
2017-05-08T04:56:51.285Z,5
2017-05-08T04:58:01.822Z,5
2017-05-08T04:59:12.111Z,5
2017-05-08T05:00:22.393Z,5
2017-05-08T05:01:32.103Z,5
2017-05-08T05:02:42.396Z,5
2017-05-08T05:03:52.628Z,5
2017-05-08T05:05:02.595Z,5
2017-05-08T05:06:12.880Z,5
2017-05-08T05:07:22.847Z,5
2017-05-08T05:08:32.830Z,5
2017-05-08T05:09:43.360Z,5
2017-05-08T05:10:53.639Z,5
2017-05-08T05:12:03.919Z,5
2017-05-08T05:13:13.892Z,5
2017-05-08T05:14:24.180Z,5
2017-05-08T05:15:34.421Z,5
2017-05-08T05:16:44.698Z,5
2017-05-08T05:17:54.973Z,5
2017-05-08T05:19:05.256Z,5
2017-05-08T05:20:15.228Z,5
2017-05-08T05:21:25.459Z,5
2017-05-08T05:22:35.434Z,5
2017-05-08T05:23:45.414Z,5
2017-05-08T05:24:55.694Z,5
2017-05-08T05:26:05.997Z,5
2017-05-08T05:27:16.519Z,5
2017-05-08T05:28:26.515Z,5
2017-05-08T05:29:36.795Z,5
2017-05-08T05:30:47.084Z,5
2017-05-08T05:31:57.368Z,5
2017-05-08T05:33:07.912Z,5
2017-05-08T05:34:17.909Z,5
2017-05-08T05:35:28.185Z,5
2017-05-08T05:36:38.505Z,5
2017-05-08T05:37:48.165Z,5
2017-05-08T05:38:58.717Z,10
2017-05-08T05:40:09.014Z,10
2017-05-08T05:41:19.294Z,10
2017-05-08T05:42:29.588Z,15
2017-05-08T05:43:39.556Z,15
2017-05-08T05:44:50.091Z,15
2017-05-08T05:46:00.085Z,10
2017-05-08T05:47:10.373Z,10
2017-05-08T05:48:20.656Z,10
2017-05-08T05:49:30.960Z,10
2017-05-08T05:50:41.545Z,10
2017-05-08T05:51:51.226Z,10
2017-05-08T05:53:01.527Z,10
2017-05-08T05:54:11.802Z,10
2017-05-08T05:55:21.776Z,15
2017-05-08T05:56:32.325Z,15
2017-05-08T05:57:42.606Z,15
2017-05-08T05:58:52.574Z,20
2017-05-08T06:00:02.549Z,25
2017-05-08T06:01:12.844Z,25
2017-05-08T06:02:23.380Z,30
2017-05-08T06:03:33.364Z,30
2017-05-08T06:04:43.337Z,30
2017-05-08T06:05:53.896Z,30
2017-05-08T06:07:04.192Z,25
2017-05-08T06:08:14.733Z,20
2017-05-08T06:09:25.047Z,15
2017-05-08T06:10:35.015Z,15
2017-05-08T06:11:44.709Z,15
2017-05-08T06:12:55.243Z,15
2017-05-08T06:14:05.471Z,15
2017-05-08T06:15:15.763Z,15
2017-05-08T06:16:26.068Z,15
2017-05-08T06:17:36.104Z,15
2017-05-08T06:18:46.110Z,20
2017-05-08T06:19:56.650Z,25
2017-05-08T06:21:06.977Z,25
2017-05-08T06:22:17.294Z,25
2017-05-08T06:23:27.290Z,25
2017-05-08T06:24:37.578Z,25
2017-05-08T06:25:48.127Z,25
2017-05-08T06:26:58.102Z,25
2017-05-08T06:28:08.419Z,25
2017-05-08T06:29:18.716Z,30
2017-05-08T06:30:28.702Z,25
2017-05-08T06:31:39.245Z,30
2017-05-08T06:32:49.233Z,30
2017-05-08T06:33:59.522Z,30
2017-05-08T06:35:09.805Z,30
2017-05-08T06:36:20.102Z,30
2017-05-08T06:37:30.339Z,25
2017-05-08T06:38:40.685Z,20
2017-05-08T06:39:51.033Z,20
2017-05-08T06:41:01.443Z,15
2017-05-08T06:42:11.790Z,15
2017-05-08T06:43:22.079Z,15
2017-05-08T06:44:32.432Z,15
2017-05-08T06:45:42.420Z,15
2017-05-08T06:46:52.094Z,20
2017-05-08T06:48:02.392Z,20
2017-05-08T06:49:12.637Z,20
2017-05-08T06:50:22.940Z,20
2017-05-08T06:51:32.934Z,20
2017-05-08T06:52:43.234Z,15
2017-05-08T06:53:53.522Z,15
2017-05-08T06:55:04.077Z,15
2017-05-08T06:56:14.051Z,15
2017-05-08T06:57:24.359Z,15
2017-05-08T06:58:34.666Z,15
2017-05-08T06:59:44.971Z,15
2017-05-08T07:00:55.538Z,15
2017-05-08T07:02:05.827Z,15
2017-05-08T07:03:15.505Z,15
2017-05-08T07:04:25.834Z,20
2017-05-08T07:05:35.813Z,25
2017-05-08T07:06:46.349Z,30
2017-05-08T07:07:56.647Z,30
2017-05-08T07:09:06.944Z,25
2017-05-08T07:10:16.647Z,35
2017-05-08T07:11:26.944Z,45
2017-05-08T07:12:37.922Z,50
2017-05-08T07:13:48.268Z,55
2017-05-08T07:14:58.309Z,55
2017-05-08T07:16:08.636Z,55
2017-05-08T07:17:18.926Z,50
2017-05-08T07:18:29.478Z,55
2017-05-08T07:19:39.763Z,65
2017-05-08T07:20:49.204Z,70
2017-05-08T07:21:59.197Z,70
2017-05-08T07:23:09.520Z,70
2017-05-08T07:24:20.056Z,75
2017-05-08T07:25:30.624Z,75
2017-05-08T07:26:40.285Z,55
2017-05-08T07:27:50.583Z,45
2017-05-08T07:29:00.866Z,45
2017-05-08T07:30:11.402Z,50
2017-05-08T07:31:20.458Z,50
2017-05-08T07:32:30.749Z,45
2017-05-08T07:33:41.044Z,45
2017-05-08T07:34:51.341Z,45
2017-05-08T07:36:01.889Z,50
2017-05-08T07:37:12.184Z,55
2017-05-08T07:38:21.847Z,55
2017-05-08T07:39:32.164Z,50
2017-05-08T07:40:41.855Z,45
2017-05-08T07:41:52.410Z,45
2017-05-08T07:43:02.411Z,35
2017-05-08T07:44:12.402Z,40
2017-05-08T07:45:22.725Z,40
2017-05-08T07:46:33.021Z,40
2017-05-08T07:47:43.556Z,45
2017-05-08T07:48:53.556Z,45
2017-05-08T07:50:03.534Z,40
2017-05-08T07:51:13.831Z,40
2017-05-08T07:52:23.191Z,40
2017-05-08T07:53:33.444Z,45
2017-05-08T07:54:43.136Z,50
2017-05-08T07:55:53.453Z,50
2017-05-08T07:57:03.915Z,50
2017-05-08T07:58:14.206Z,45
2017-05-08T07:59:24.757Z,45
2017-05-08T08:00:35.104Z,45
2017-05-08T08:01:45.409Z,45
2017-05-08T08:02:55.828Z,45
2017-05-08T08:04:05.832Z,45
2017-05-08T08:05:16.068Z,45
2017-05-08T08:06:26.356Z,45
2017-05-08T08:07:36.662Z,45
2017-05-08T08:08:46.960Z,40
2017-05-08T08:09:56.649Z,40
2017-05-08T08:11:07.204Z,40
2017-05-08T08:12:17.495Z,40
2017-05-08T08:13:27.486Z,40
2017-05-08T08:14:37.472Z,30
2017-05-08T08:15:47.825Z,30
2017-05-08T08:16:58.375Z,25
2017-05-08T08:18:08.667Z,25
2017-05-08T08:19:19.031Z,25
2017-05-08T08:20:29.310Z,30
2017-05-08T08:21:39.284Z,35
2017-05-08T08:22:49.855Z,40
2017-05-08T08:23:59.561Z,40
2017-05-08T08:25:09.550Z,40
2017-05-08T08:26:19.547Z,35
2017-05-08T08:27:29.544Z,40
2017-05-08T08:28:40.082Z,40
2017-05-08T08:29:50.379Z,40
2017-05-08T08:31:00.683Z,35
2017-05-08T08:32:10.670Z,40
2017-05-08T08:33:20.655Z,40
2017-05-08T08:34:30.893Z,40
2017-05-08T08:35:41.195Z,35
2017-05-08T08:36:51.498Z,25
2017-05-08T08:38:01.849Z,25
2017-05-08T08:39:11.538Z,25
2017-05-08T08:40:22.127Z,25
2017-05-08T08:41:32.429Z,30
2017-05-08T08:42:42.721Z,35
2017-05-08T08:43:52.698Z,30
2017-05-08T08:45:02.989Z,25
2017-05-08T08:46:13.227Z,25
2017-05-08T08:47:23.525Z,25
2017-05-08T08:48:33.517Z,30
2017-05-08T08:49:43.870Z,40
2017-05-08T08:50:53.542Z,40
2017-05-08T08:52:03.807Z,40
2017-05-08T08:53:14.114Z,40
2017-05-08T08:54:24.104Z,45
2017-05-08T08:55:34.402Z,40
2017-05-08T08:56:44.390Z,45
2017-05-08T08:57:54.662Z,55
2017-05-08T08:59:04.366Z,50
2017-05-08T09:00:14.356Z,50
2017-05-08T09:01:24.029Z,45
2017-05-08T09:02:34.037Z,45
2017-05-08T09:03:44.274Z,50
2017-05-08T09:04:54.577Z,50
2017-05-08T09:06:04.566Z,45
2017-05-08T09:07:14.866Z,40
2017-05-08T09:08:24.885Z,45
2017-05-08T09:09:35.434Z,45
2017-05-08T09:10:45.113Z,45
2017-05-08T09:11:55.129Z,65
2017-05-08T09:13:05.113Z,50
2017-05-08T09:14:15.666Z,60
2017-05-08T09:15:25.898Z,80
2017-05-08T09:16:36.217Z,75
2017-05-08T09:17:46.245Z,65
2017-05-08T09:18:56.552Z,60
2017-05-08T09:20:06.875Z,60
2017-05-08T09:21:17.111Z,55
2017-05-08T09:22:27.406Z,55
2017-05-08T09:23:37.707Z,55
2017-05-08T09:24:47.997Z,50
2017-05-08T09:25:58.294Z,55
2017-05-08T09:27:08.519Z,60
2017-05-08T09:28:18.502Z,65
2017-05-08T09:29:28.785Z,75
2017-05-08T09:30:38.774Z,70
2017-05-08T09:31:49.077Z,80
2017-05-08T09:32:59.634Z,70
2017-05-08T09:34:10.163Z,85
2017-05-08T09:35:20.495Z,100
2017-05-08T09:36:30.746Z,90
2017-05-08T09:37:40.738Z,80
2017-05-08T09:38:51.292Z,80
2017-05-08T09:40:01.885Z,90
2017-05-08T09:41:12.242Z,110
2017-05-08T09:42:23.087Z,100
2017-05-08T09:43:33.398Z,105
2017-05-08T09:44:43.570Z,105
2017-05-08T09:45:53.886Z,75
2017-05-08T09:47:04.150Z,75
2017-05-08T09:48:14.464Z,75
2017-05-08T09:49:24.487Z,70
2017-05-08T09:50:35.064Z,60
2017-05-08T09:51:45.083Z,60
2017-05-08T09:52:55.408Z,60
2017-05-08T09:54:05.695Z,70
2017-05-08T09:55:15.728Z,80
2017-05-08T09:56:25.984Z,90
2017-05-08T09:57:36.379Z,90
2017-05-08T09:58:46.956Z,125
2017-05-08T09:59:57.314Z,130
2017-05-08T10:01:07.604Z,125
2017-05-08T10:02:18.185Z,115
2017-05-08T10:03:28.191Z,105
2017-05-08T10:04:38.581Z,100
2017-05-08T10:05:48.578Z,80
2017-05-08T10:06:58.878Z,65
2017-05-08T10:08:09.479Z,60
2017-05-08T10:09:19.546Z,60
2017-05-08T10:10:29.612Z,60
2017-05-08T10:11:40.217Z,65
2017-05-08T10:12:50.628Z,65
2017-05-08T10:14:01.514Z,65
2017-05-08T10:15:11.561Z,60
2017-05-08T10:16:21.553Z,60
2017-05-08T10:17:31.882Z,55
2017-05-08T10:18:41.914Z,45
2017-05-08T10:19:52.144Z,45
2017-05-08T10:21:02.127Z,45
2017-05-08T10:22:12.465Z,40
2017-05-08T10:23:22.820Z,40
2017-05-08T10:24:33.159Z,40
2017-05-08T10:25:43.732Z,40
2017-05-08T10:26:54.150Z,45
2017-05-08T10:28:04.479Z,40
2017-05-08T10:29:14.780Z,40
2017-05-08T10:30:24.789Z,40
2017-05-08T10:31:35.047Z,35
2017-05-08T10:32:45.383Z,40
2017-05-08T10:33:55.412Z,40
2017-05-08T10:35:05.393Z,40
2017-05-08T10:36:14.794Z,40
2017-05-08T10:37:25.027Z,40
2017-05-08T10:38:35.010Z,40
2017-05-08T10:39:45.331Z,35
2017-05-08T10:40:55.018Z,40
2017-05-08T10:42:05.521Z,40
2017-05-08T10:43:15.783Z,40
2017-05-08T10:44:25.758Z,45
2017-05-08T10:45:35.428Z,60
2017-05-08T10:46:45.715Z,60
2017-05-08T10:47:56.076Z,75
2017-05-08T10:49:06.629Z,75
2017-05-08T10:50:16.629Z,80
2017-05-08T10:51:26.684Z,75
2017-05-08T10:52:36.696Z,65
2017-05-08T10:53:46.375Z,60
2017-05-08T10:54:56.921Z,60
2017-05-08T10:56:07.215Z,55
2017-05-08T10:57:17.517Z,55
2017-05-08T10:58:27.504Z,55
2017-05-08T10:59:37.181Z,45
2017-05-08T11:00:47.769Z,45
2017-05-08T11:01:57.745Z,40
2017-05-08T11:03:07.728Z,35
2017-05-08T11:04:17.783Z,40
2017-05-08T11:05:27.470Z,40
2017-05-08T11:06:37.710Z,35
2017-05-08T11:09:55.080Z,40
2017-05-08T11:11:05.322Z,45
2017-05-08T11:12:15.610Z,45
2017-05-08T11:13:26.141Z,35
2017-05-08T11:14:36.145Z,35
2017-05-08T11:15:46.422Z,35
2017-05-08T11:16:56.727Z,35
2017-05-08T11:18:07.253Z,35
2017-05-08T11:19:16.594Z,35
2017-05-08T11:20:26.874Z,35
2017-05-08T11:21:36.845Z,35
2017-05-08T11:22:47.130Z,40
2017-05-08T11:23:57.079Z,45
2017-05-08T11:25:07.370Z,45
2017-05-08T11:26:17.351Z,45
2017-05-08T11:27:27.370Z,45
2017-05-08T11:28:37.344Z,65
2017-05-08T11:29:47.893Z,85
2017-05-08T11:30:57.920Z,90
2017-05-08T11:32:07.907Z,60
2017-05-08T11:33:18.203Z,75
2017-05-08T11:34:28.488Z,65
2017-05-08T11:35:39.013Z,45
2017-05-08T11:36:49.310Z,50
2017-05-08T11:37:59.591Z,45
2017-05-08T11:39:09.577Z,40
2017-05-08T11:40:19.852Z,45
2017-05-08T11:41:30.381Z,55
2017-05-08T11:42:40.355Z,50
2017-05-08T11:43:50.663Z,50
2017-05-08T11:45:00.980Z,55
2017-05-08T11:46:10.955Z,70
2017-05-08T11:47:21.512Z,60
2017-05-08T11:48:31.800Z,50
2017-05-08T11:49:41.789Z,55
2017-05-08T11:50:52.084Z,50
2017-05-08T11:52:02.360Z,50
2017-05-08T11:53:12.905Z,50
2017-05-08T11:54:23.188Z,55
2017-05-08T11:55:33.424Z,65
2017-05-08T11:56:43.736Z,50
2017-05-08T11:57:54.039Z,45
2017-05-08T11:59:04.584Z,40
2017-05-08T12:00:14.878Z,40
2017-05-08T12:01:25.176Z,45
2017-05-08T12:02:35.469Z,55
2017-05-08T12:03:45.440Z,60
2017-05-08T12:04:55.752Z,55
2017-05-08T12:06:05.722Z,50
2017-05-08T12:07:16.028Z,55
2017-05-08T12:08:26.013Z,50
2017-05-08T12:09:36.276Z,50
2017-05-08T12:10:46.818Z,45
2017-05-08T12:11:57.107Z,40
2017-05-08T12:13:06.775Z,40
2017-05-08T12:14:17.059Z,35
2017-05-08T12:15:27.336Z,35
2017-05-08T12:16:37.874Z,35
2017-05-08T12:17:47.848Z,35
2017-05-08T12:18:58.133Z,35
2017-05-08T12:20:08.434Z,35
2017-05-08T12:21:18.428Z,35
2017-05-08T12:22:28.959Z,35
2017-05-08T12:23:39.305Z,40
2017-05-08T12:24:49.300Z,40
2017-05-08T12:25:59.586Z,35
2017-05-08T12:27:09.889Z,40
2017-05-08T12:28:20.167Z,40
2017-05-08T12:29:30.448Z,45
2017-05-08T12:30:40.753Z,55
2017-05-08T12:31:51.031Z,55
2017-05-08T12:33:01.030Z,60
2017-05-08T12:34:11.569Z,55
2017-05-08T12:35:21.889Z,60
2017-05-08T12:36:32.207Z,55
2017-05-08T12:37:42.179Z,55
2017-05-08T12:38:52.473Z,60
2017-05-08T12:40:03.016Z,60
2017-05-08T12:41:12.997Z,50
2017-05-08T12:42:23.279Z,65
2017-05-08T12:43:33.575Z,70
2017-05-08T12:44:43.868Z,65
2017-05-08T12:45:54.445Z,65
2017-05-08T12:47:04.752Z,60
2017-05-08T12:48:15.041Z,70
2017-05-08T12:49:25.031Z,55
2017-05-08T12:50:35.032Z,60
2017-05-08T12:51:45.602Z,65
2017-05-08T12:52:55.901Z,65
2017-05-08T12:54:05.881Z,60
2017-05-08T12:55:16.176Z,60
2017-05-08T12:56:25.839Z,70
2017-05-08T12:57:36.072Z,75
2017-05-08T12:58:46.390Z,70
2017-05-08T12:59:56.392Z,60
2017-05-08T13:01:06.711Z,85
2017-05-08T13:02:16.724Z,65
2017-05-08T13:03:27.511Z,45
2017-05-08T13:04:37.502Z,50
2017-05-08T13:05:47.801Z,50
2017-05-08T13:06:57.776Z,50
2017-05-08T13:08:07.442Z,45
2017-05-08T13:09:17.995Z,35
2017-05-08T13:10:27.969Z,30
2017-05-08T13:11:38.246Z,40
2017-05-08T13:12:48.555Z,35
2017-05-08T13:13:58.849Z,40
2017-05-08T13:15:09.411Z,40
2017-05-08T13:16:19.693Z,35
2017-05-08T13:17:30.004Z,40
2017-05-08T13:18:40.295Z,45
2017-05-08T13:19:50.606Z,50
2017-05-08T13:21:00.843Z,35
2017-05-08T13:22:10.825Z,20
2017-05-08T13:23:21.123Z,25
2017-05-08T13:24:31.414Z,60
2017-05-08T13:25:41.694Z,75
2017-05-08T13:26:51.904Z,65
2017-05-08T13:28:02.229Z,35
2017-05-08T13:29:12.213Z,40
2017-05-08T13:30:22.504Z,30
2017-05-08T13:31:32.795Z,25
2017-05-08T13:32:43.025Z,20
2017-05-08T13:33:52.695Z,25
2017-05-08T13:35:02.990Z,25
2017-05-08T13:36:12.963Z,25
2017-05-08T13:37:23.255Z,20
2017-05-08T13:38:34.029Z,30
2017-05-08T13:39:44.030Z,45
2017-05-08T13:40:54.314Z,55
2017-05-08T13:42:04.346Z,50
2017-05-08T13:43:14.326Z,55
2017-05-08T13:44:24.861Z,45
2017-05-08T13:45:35.135Z,45
2017-05-08T13:46:45.126Z,35
2017-05-08T13:47:55.411Z,30
2017-05-08T13:49:05.691Z,20
2017-05-08T13:50:16.265Z,20
2017-05-08T13:51:26.547Z,15
2017-05-08T13:52:36.832Z,20
2017-05-08T13:53:47.122Z,35
2017-05-08T13:54:57.399Z,30
2017-05-08T13:56:07.620Z,30
2017-05-08T13:57:17.590Z,30
2017-05-08T13:58:27.873Z,35
2017-05-08T13:59:38.171Z,35
2017-05-08T14:00:48.143Z,55
2017-05-08T14:01:58.435Z,55
2017-05-08T14:03:08.724Z,60
2017-05-08T14:04:18.698Z,60
2017-05-08T14:05:28.679Z,60
2017-05-08T14:06:38.975Z,65
2017-05-08T14:07:49.499Z,65
2017-05-08T14:08:59.784Z,70
2017-05-08T14:10:09.778Z,65
2017-05-08T14:11:19.440Z,75
2017-05-08T14:12:29.729Z,85
2017-05-08T14:13:40.265Z,90
2017-05-08T14:14:49.920Z,95
2017-05-08T14:16:00.215Z,100
2017-05-08T14:17:10.230Z,90
2017-05-08T14:18:19.901Z,105
2017-05-08T14:19:30.429Z,105
2017-05-08T14:20:40.405Z,65
2017-05-08T14:21:50.698Z,65
2017-05-08T14:23:00.982Z,60
2017-05-08T14:24:11.260Z,50
2017-05-08T14:25:21.794Z,45
2017-05-08T14:26:32.171Z,35
2017-05-08T14:27:42.457Z,30
2017-05-08T14:28:52.451Z,30
2017-05-08T14:30:02.733Z,25
2017-05-08T14:31:12.958Z,25
2017-05-08T14:32:23.235Z,30
2017-05-08T14:33:33.509Z,30
2017-05-08T14:34:43.791Z,25
2017-05-08T14:35:53.769Z,25
2017-05-08T14:37:04.306Z,25
2017-05-08T14:38:14.591Z,30
2017-05-08T14:39:24.891Z,30
2017-05-08T14:40:35.168Z,30
2017-05-08T14:41:45.143Z,35
2017-05-08T14:42:55.365Z,30
2017-05-08T14:44:05.333Z,25
2017-05-08T14:45:15.628Z,25
2017-05-08T14:46:25.922Z,25
2017-05-08T14:47:36.237Z,30
2017-05-08T14:48:46.452Z,30
2017-05-08T14:49:56.742Z,20
2017-05-08T14:51:06.706Z,20
2017-05-08T14:52:16.997Z,15
2017-05-08T14:53:27.294Z,15
2017-05-08T14:54:37.836Z,10
2017-05-08T14:55:48.120Z,10
2017-05-08T14:56:58.411Z,10
2017-05-08T14:58:08.699Z,10
2017-05-08T14:59:18.973Z,10
2017-05-08T15:00:29.193Z,10
2017-05-08T15:01:39.182Z,10
2017-05-08T15:02:49.469Z,15
2017-05-08T15:03:59.129Z,15
2017-05-08T15:05:09.150Z,20
2017-05-08T15:06:19.676Z,15
2017-05-08T15:07:29.653Z,20
2017-05-08T15:08:39.954Z,20
2017-05-08T15:09:49.934Z,20
2017-05-08T15:11:00.222Z,20
2017-05-08T15:12:10.763Z,20
2017-05-08T15:13:21.050Z,25
2017-05-08T15:14:31.330Z,25
2017-05-08T15:15:41.604Z,25
2017-05-08T15:16:51.894Z,30
2017-05-08T15:18:02.140Z,30
2017-05-08T15:19:12.425Z,40
2017-05-08T15:20:22.742Z,35
2017-05-08T15:21:32.715Z,35
2017-05-08T15:22:42.994Z,45
2017-05-08T15:23:53.536Z,45
2017-05-08T15:25:03.842Z,55
2017-05-08T15:26:14.130Z,45
2017-05-08T15:27:24.121Z,50
2017-05-08T15:28:34.412Z,70
2017-05-08T15:29:44.937Z,75
2017-05-08T15:30:54.909Z,60
2017-05-08T15:32:05.201Z,55
2017-05-08T15:33:15.188Z,40
2017-05-08T15:34:25.176Z,50
2017-05-08T15:35:35.706Z,40
2017-05-08T15:36:45.693Z,25
2017-05-08T15:37:55.982Z,30
2017-05-08T15:39:06.260Z,25
2017-05-08T15:40:16.540Z,25
2017-05-08T15:41:27.077Z,20
2017-05-08T15:42:37.049Z,20
2017-05-08T15:43:47.345Z,20
2017-05-08T15:44:57.321Z,25
2017-05-08T15:46:07.614Z,20
2017-05-08T15:47:17.821Z,15
2017-05-08T15:48:27.491Z,10
2017-05-08T15:49:37.478Z,10
2017-05-08T15:50:47.764Z,10
2017-05-08T15:51:58.103Z,10
2017-05-08T15:53:08.329Z,15
2017-05-08T15:54:18.618Z,20
2017-05-08T15:55:28.590Z,25
2017-05-08T15:56:38.572Z,20
2017-05-08T15:57:48.865Z,20
2017-05-08T15:58:59.469Z,25
2017-05-08T16:00:09.128Z,30
2017-05-08T16:01:19.426Z,30
2017-05-08T16:02:29.697Z,30
2017-05-08T16:03:39.987Z,25
2017-05-08T16:04:50.513Z,30
2017-05-08T16:06:00.809Z,35
2017-05-08T16:07:10.796Z,40
2017-05-08T16:08:21.081Z,40
2017-05-08T16:09:31.377Z,45
2017-05-08T16:10:41.932Z,65
2017-05-08T16:11:51.901Z,65
2017-05-08T16:13:02.179Z,65
2017-05-08T16:14:12.557Z,50
2017-05-08T16:15:22.837Z,45
2017-05-08T16:16:33.724Z,35
2017-05-08T16:17:43.686Z,25
2017-05-08T16:18:53.975Z,25
2017-05-08T16:20:04.277Z,20
2017-05-08T16:21:14.552Z,15
2017-05-08T16:22:24.777Z,15
2017-05-08T16:23:35.066Z,15
2017-05-08T16:24:45.343Z,20
2017-05-08T16:25:55.308Z,20
2017-05-08T16:27:05.605Z,20
2017-05-08T16:28:16.140Z,15
2017-05-08T16:29:26.427Z,20
2017-05-08T16:30:36.708Z,15
2017-05-08T16:31:47.001Z,10
2017-05-08T16:32:56.981Z,10
2017-05-08T16:34:07.518Z,10
2017-05-08T16:35:17.182Z,10
2017-05-08T16:36:27.486Z,10
2017-05-08T16:37:37.798Z,15
2017-05-08T16:38:47.460Z,15
2017-05-08T16:39:57.689Z,20
2017-05-08T16:41:07.970Z,20
2017-05-08T16:42:17.950Z,20
2017-05-08T16:43:28.244Z,25
2017-05-08T16:44:38.226Z,20
2017-05-08T16:45:48.774Z,25
2017-05-08T16:46:59.066Z,35
2017-05-08T16:48:09.080Z,35
2017-05-08T16:49:19.061Z,35
2017-05-08T16:50:29.346Z,40
2017-05-08T16:51:38.996Z,45
2017-05-08T16:52:49.285Z,45
2017-05-08T16:53:59.582Z,50
2017-05-08T16:55:09.873Z,50